createdAt,value
2017-12-12T00:01:34.625Z,19.37
2017-12-12T00:04:02.137Z,20.60
2017-12-12T00:06:30.513Z,19.90
2017-12-12T00:08:58.741Z,21.77
2017-12-12T00:11:26.730Z,20.07
2017-12-12T00:13:54.273Z,25.30
2017-12-12T00:16:21.817Z,21.57
2017-12-12T00:18:49.473Z,23.80
2017-12-12T00:21:16.938Z,23.57
2017-12-12T00:23:44.603Z,25.60
2017-12-12T00:26:12.145Z,20.80
2017-12-12T00:28:39.604Z,17.20
2017-12-12T00:31:07.076Z,18.37
2017-12-12T00:33:34.549Z,18.90
2017-12-12T00:36:02.011Z,20.13
2017-12-12T00:38:29.479Z,18.03
2017-12-12T00:40:56.952Z,16.73
2017-12-12T00:43:24.430Z,19.50
2017-12-12T00:45:51.911Z,18.20
2017-12-12T00:48:19.381Z,18.70
2017-12-12T00:50:46.862Z,21.30
2017-12-12T00:53:14.329Z,19.67
2017-12-12T00:55:43.404Z,18.33
2017-12-12T00:58:10.884Z,18.87
2017-12-12T01:00:38.473Z,18.60
2017-12-12T01:03:05.964Z,18.67
2017-12-12T01:05:33.448Z,18.80
2017-12-12T01:08:00.901Z,16.83
2017-12-12T01:10:28.386Z,14.00
2017-12-12T01:12:56.647Z,18.13
2017-12-12T01:15:24.122Z,15.80
2017-12-12T01:17:52.366Z,15.90
2017-12-12T01:20:19.842Z,18.77
2017-12-12T01:22:47.394Z,13.80
2017-12-12T01:25:14.858Z,15.07
2017-12-12T01:27:42.325Z,14.90
2017-12-12T01:30:10.581Z,13.67
2017-12-12T01:32:38.146Z,11.53
2017-12-12T01:35:05.756Z,12.13
2017-12-12T01:37:33.395Z,15.10
2017-12-12T01:40:00.849Z,12.37
2017-12-12T01:42:28.395Z,14.83
2017-12-12T01:44:56.641Z,14.80
2017-12-12T01:47:24.124Z,12.57
2017-12-12T01:49:52.369Z,12.63
2017-12-12T01:52:19.838Z,13.70
2017-12-12T01:54:48.814Z,11.50
2017-12-12T01:57:16.273Z,12.67
2017-12-12T01:59:43.770Z,12.13
2017-12-12T02:02:12.001Z,14.37
2017-12-12T02:04:39.466Z,11.50
2017-12-12T02:07:06.937Z,12.93
2017-12-12T02:09:34.422Z,16.37
2017-12-12T02:12:01.886Z,9.70
2017-12-12T02:14:29.361Z,9.73
2017-12-12T02:16:56.826Z,7.10
2017-12-12T02:19:24.334Z,7.60
2017-12-12T02:21:52.574Z,6.50
2017-12-12T02:24:20.043Z,5.57
2017-12-12T02:26:47.505Z,6.80
2017-12-12T02:29:14.972Z,7.50
2017-12-12T02:31:43.216Z,6.80
2017-12-12T02:34:11.680Z,7.73
2017-12-12T02:36:39.149Z,8.13
2017-12-12T02:39:06.623Z,6.40
2017-12-12T02:41:35.601Z,6.43
2017-12-12T02:44:03.073Z,6.90
2017-12-12T02:46:30.624Z,6.57
2017-12-12T02:48:58.154Z,9.40
2017-12-12T02:51:25.634Z,7.30
2017-12-12T02:53:53.108Z,7.20
2017-12-12T02:56:20.582Z,19.97
2017-12-12T02:58:48.823Z,6.70
2017-12-12T03:01:16.278Z,7.07
2017-12-12T03:03:43.819Z,7.67
2017-12-12T03:06:11.267Z,7.60
2017-12-12T03:08:38.734Z,7.47
2017-12-12T03:11:06.400Z,7.20
2017-12-12T03:13:33.883Z,7.90
2017-12-12T03:16:01.763Z,7.67
2017-12-12T03:18:30.018Z,6.63
2017-12-12T03:20:57.493Z,7.77
2017-12-12T03:23:24.976Z,6.57
2017-12-12T03:25:52.450Z,7.60
2017-12-12T03:28:19.913Z,6.90
2017-12-12T03:30:47.370Z,7.67
2017-12-12T03:33:15.009Z,5.77
2017-12-12T03:35:42.621Z,9.10
2017-12-12T03:38:10.119Z,7.20
2017-12-12T03:40:38.358Z,8.00
2017-12-12T03:43:05.948Z,11.70
2017-12-12T03:45:34.182Z,8.33
2017-12-12T03:48:01.661Z,8.67
2017-12-12T03:50:29.138Z,12.60
2017-12-12T03:52:57.368Z,8.73
2017-12-12T03:55:24.824Z,11.30
2017-12-12T03:57:52.299Z,10.10
2017-12-12T04:00:19.766Z,9.10
2017-12-12T04:02:47.245Z,9.67
2017-12-12T04:05:14.703Z,8.70
2017-12-12T04:07:42.973Z,11.30
2017-12-12T04:10:11.220Z,10.93
2017-12-12T04:12:38.695Z,10.87
2017-12-12T04:15:06.917Z,11.90
2017-12-12T04:17:34.393Z,8.60
2017-12-12T04:20:01.852Z,9.33
2017-12-12T04:22:29.316Z,12.30
2017-12-12T04:24:56.792Z,12.47
2017-12-12T04:27:24.256Z,9.67
2017-12-12T04:29:52.498Z,11.07
2017-12-12T04:32:19.968Z,8.17
2017-12-12T04:34:47.484Z,11.30
2017-12-12T04:37:14.941Z,9.40
2017-12-12T04:39:42.927Z,7.33
2017-12-12T04:42:10.377Z,9.63
2017-12-12T04:44:37.961Z,13.03
2017-12-12T04:47:05.425Z,10.50
2017-12-12T04:49:32.894Z,16.43
2017-12-12T04:52:00.541Z,14.93
2017-12-12T04:54:28.025Z,9.37
2017-12-12T04:56:56.261Z,9.57
2017-12-12T04:59:23.713Z,14.67
2017-12-12T05:01:51.177Z,9.63
2017-12-12T05:04:18.662Z,9.97
2017-12-12T05:06:46.901Z,12.30
2017-12-12T05:09:14.366Z,11.63
2017-12-12T05:11:41.836Z,14.80
2017-12-12T05:14:10.073Z,13.53
2017-12-12T05:16:37.549Z,13.70
2017-12-12T05:19:05.031Z,14.03
2017-12-12T05:21:32.487Z,11.30
2017-12-12T05:23:59.957Z,12.73
2017-12-12T05:26:28.177Z,12.33
2017-12-12T05:28:55.645Z,15.30
2017-12-12T05:31:23.152Z,12.27
2017-12-12T05:33:51.377Z,11.10
2017-12-12T05:36:18.837Z,11.67
2017-12-12T05:38:46.305Z,18.33
2017-12-12T05:41:13.769Z,14.47
2017-12-12T05:43:41.269Z,10.90
2017-12-12T05:46:08.709Z,8.50
2017-12-12T05:48:36.965Z,9.77
2017-12-12T05:51:05.056Z,8.50
2017-12-12T05:53:33.302Z,14.53
2017-12-12T05:56:00.769Z,8.50
2017-12-12T05:58:28.972Z,14.70
2017-12-12T06:00:56.438Z,9.33
2017-12-12T06:03:23.896Z,7.83
2017-12-12T06:05:51.382Z,10.30
2017-12-12T06:08:19.026Z,10.10
2017-12-12T06:10:46.545Z,11.10
2017-12-12T06:13:14.786Z,13.20
2017-12-12T06:15:42.262Z,9.10
2017-12-12T06:18:09.720Z,15.40
2017-12-12T06:20:37.184Z,13.13
2017-12-12T06:23:05.481Z,10.47
2017-12-12T06:25:32.984Z,12.80
2017-12-12T06:28:00.470Z,13.20
2017-12-12T06:30:27.939Z,14.17
2017-12-12T06:32:56.173Z,11.77
2017-12-12T06:35:23.635Z,15.87
2017-12-12T06:37:51.150Z,12.00
2017-12-12T06:40:18.694Z,9.33
2017-12-12T06:42:47.150Z,13.50
2017-12-12T06:45:14.798Z,11.70
2017-12-12T06:47:42.293Z,10.83
2017-12-12T06:50:10.653Z,8.70
2017-12-12T06:52:38.884Z,10.10
2017-12-12T06:55:06.376Z,11.70
2017-12-12T06:57:33.826Z,12.80
2017-12-12T07:00:01.297Z,13.43
2017-12-12T07:02:28.773Z,14.63
2017-12-12T07:04:57.013Z,14.70
2017-12-12T07:07:24.469Z,12.00
2017-12-12T07:09:51.941Z,11.13
2017-12-12T07:12:19.400Z,10.30
2017-12-12T07:14:47.650Z,14.90
2017-12-12T07:17:15.106Z,11.27
2017-12-12T07:19:42.763Z,15.87
2017-12-12T07:22:10.221Z,17.37
2017-12-12T07:24:38.313Z,13.10
2017-12-12T07:27:05.786Z,16.17
2017-12-12T07:29:34.017Z,12.80
2017-12-12T07:32:01.546Z,15.63
2017-12-12T07:34:29.021Z,14.87
2017-12-12T07:36:56.500Z,12.20
2017-12-12T07:39:23.953Z,14.70
2017-12-12T07:41:51.424Z,12.20
2017-12-12T07:44:18.885Z,13.33
2017-12-12T07:46:46.370Z,12.27
2017-12-12T07:49:14.616Z,17.73
2017-12-12T07:51:42.093Z,11.60
2017-12-12T07:54:10.314Z,12.93
2017-12-12T07:56:37.794Z,12.53
2017-12-12T07:59:05.262Z,11.93
2017-12-12T08:01:32.828Z,15.00
2017-12-12T08:04:00.306Z,12.43
2017-12-12T08:06:28.572Z,10.90
2017-12-12T08:08:56.815Z,11.83
2017-12-12T08:11:24.355Z,10.83
2017-12-12T08:13:51.890Z,13.60
2017-12-12T08:16:19.393Z,13.30
2017-12-12T08:18:46.861Z,12.83
2017-12-12T08:21:14.322Z,10.07
2017-12-12T08:23:41.866Z,9.97
2017-12-12T08:26:09.441Z,11.90
2017-12-12T08:28:36.951Z,13.70
2017-12-12T08:31:04.408Z,11.57
2017-12-12T08:33:31.872Z,8.97
2017-12-12T08:35:59.361Z,10.33
2017-12-12T08:38:27.758Z,10.17
2017-12-12T08:40:56.011Z,9.67
2017-12-12T08:43:23.590Z,10.23
2017-12-12T08:45:51.053Z,10.43
2017-12-12T08:48:19.290Z,14.83
2017-12-12T08:50:46.791Z,15.70
2017-12-12T08:53:15.021Z,8.73
2017-12-12T08:55:42.497Z,13.93
2017-12-12T08:58:11.478Z,10.77
2017-12-12T09:00:38.953Z,9.97
2017-12-12T09:03:07.315Z,9.60
2017-12-12T09:05:34.847Z,8.23
2017-12-12T09:08:02.326Z,13.20
2017-12-12T09:10:29.791Z,9.20
2017-12-12T09:12:57.261Z,10.43
2017-12-12T09:15:25.494Z,11.47
2017-12-12T09:17:52.966Z,9.03
2017-12-12T09:20:20.417Z,9.00
2017-12-12T09:22:48.501Z,13.27
2017-12-12T09:25:15.981Z,11.60
2017-12-12T09:27:44.218Z,12.60
2017-12-12T09:30:12.445Z,10.83
2017-12-12T09:32:40.681Z,10.37
2017-12-12T09:35:08.155Z,12.30
2017-12-12T09:37:35.765Z,17.53
2017-12-12T09:40:03.323Z,18.17
2017-12-12T09:42:30.809Z,14.27
2017-12-12T09:44:58.292Z,20.70
2017-12-12T09:47:25.917Z,20.33
2017-12-12T09:49:53.392Z,14.33
2017-12-12T09:52:20.859Z,21.57
2017-12-12T09:54:48.336Z,15.27
2017-12-12T09:57:16.582Z,19.30
2017-12-12T09:59:44.057Z,20.97
2017-12-12T10:02:12.305Z,27.97
2017-12-12T10:04:39.770Z,21.20
2017-12-12T10:07:07.237Z,16.30
2017-12-12T10:09:34.702Z,16.23
2017-12-12T10:12:02.945Z,16.17
2017-12-12T10:14:30.413Z,17.43
2017-12-12T10:16:57.888Z,16.80
2017-12-12T10:19:26.112Z,16.77
2017-12-12T10:21:53.588Z,17.80
2017-12-12T10:24:21.072Z,15.67
2017-12-12T10:26:48.587Z,15.80
2017-12-12T10:29:16.184Z,18.63
2017-12-12T10:31:44.417Z,17.30
2017-12-12T10:34:11.888Z,16.43
2017-12-12T10:36:39.366Z,15.00
2017-12-12T10:39:06.837Z,18.80
2017-12-12T10:41:34.369Z,20.13
2017-12-12T10:44:01.809Z,16.00
2017-12-12T10:46:29.301Z,22.87
2017-12-12T10:48:56.765Z,15.40
2017-12-12T10:51:24.237Z,18.93
2017-12-12T10:53:52.478Z,14.53
2017-12-12T10:56:19.963Z,13.93
2017-12-12T10:58:47.418Z,13.93
2017-12-12T11:01:15.732Z,11.73
2017-12-12T11:03:43.203Z,13.07
2017-12-12T11:06:10.795Z,18.17
2017-12-12T11:08:38.265Z,12.83
2017-12-12T11:11:06.497Z,11.87
2017-12-12T11:13:33.966Z,13.70
2017-12-12T11:16:01.440Z,13.97
2017-12-12T11:18:28.901Z,11.63
2017-12-12T11:20:56.380Z,15.40
2017-12-12T11:23:24.689Z,10.97
2017-12-12T11:25:53.133Z,10.73
2017-12-12T11:28:21.363Z,12.23
2017-12-12T11:30:49.591Z,11.43
2017-12-12T11:33:17.843Z,15.53
2017-12-12T11:35:45.298Z,9.73
2017-12-12T11:38:13.532Z,14.23
2017-12-12T11:40:40.993Z,8.73
2017-12-12T11:43:08.454Z,10.10
2017-12-12T11:45:35.922Z,11.70
2017-12-12T11:48:03.400Z,9.63
2017-12-12T11:50:31.629Z,11.40
2017-12-12T11:52:59.085Z,12.30
2017-12-12T11:55:26.558Z,12.83
2017-12-12T11:57:54.025Z,10.53
2017-12-12T12:00:21.491Z,9.93
2017-12-12T12:02:48.949Z,9.00
2017-12-12T12:05:16.419Z,12.27
2017-12-12T12:07:43.933Z,10.07
2017-12-12T12:10:11.413Z,11.23
2017-12-12T12:12:38.891Z,10.03
2017-12-12T12:15:06.388Z,7.17
2017-12-12T12:17:33.849Z,8.60
2017-12-12T12:20:01.467Z,7.10
2017-12-12T12:22:29.019Z,7.37
2017-12-12T12:24:56.482Z,8.80
2017-12-12T12:27:23.949Z,7.70
2017-12-12T12:29:52.189Z,10.30
2017-12-12T12:32:19.672Z,12.03
2017-12-12T12:34:47.125Z,9.10
2017-12-12T12:37:15.364Z,7.20
2017-12-12T12:39:42.809Z,9.87
2017-12-12T12:42:10.282Z,7.53
2017-12-12T12:44:37.738Z,7.60
2017-12-12T12:47:05.332Z,7.10
2017-12-12T12:49:33.555Z,6.60
2017-12-12T12:52:01.055Z,6.60
2017-12-12T12:54:28.509Z,7.97
2017-12-12T12:56:55.997Z,8.90
2017-12-12T12:59:24.302Z,6.00
2017-12-12T13:01:51.757Z,6.80
2017-12-12T13:04:19.228Z,8.80
2017-12-12T13:06:46.677Z,6.80
2017-12-12T13:09:14.150Z,9.37
2017-12-12T13:11:41.741Z,5.87
2017-12-12T13:14:09.281Z,8.40
2017-12-12T13:16:36.740Z,6.00
2017-12-12T13:19:04.201Z,6.97
2017-12-12T13:21:31.666Z,5.90
2017-12-12T13:23:59.125Z,6.23
2017-12-12T13:26:26.590Z,6.20
2017-12-12T13:28:54.814Z,5.87
2017-12-12T13:31:22.287Z,6.30
2017-12-12T13:33:49.748Z,5.63
2017-12-12T13:36:17.247Z,5.77
2017-12-12T13:38:45.485Z,5.93
2017-12-12T13:41:12.969Z,5.87
2017-12-12T13:43:41.225Z,6.87
2017-12-12T13:46:08.694Z,4.10
2017-12-12T13:48:36.161Z,4.87
2017-12-12T13:51:04.411Z,16.97
2017-12-12T13:53:31.874Z,4.60
2017-12-12T13:55:59.335Z,6.90
2017-12-12T13:58:27.578Z,4.93
2017-12-12T14:00:55.041Z,6.77
2017-12-12T14:03:22.517Z,6.07
2017-12-12T14:05:50.034Z,7.33
2017-12-12T14:08:17.513Z,6.80
2017-12-12T14:10:44.987Z,8.93
2017-12-12T14:13:12.453Z,6.77
2017-12-12T14:15:40.711Z,7.10
2017-12-12T14:18:08.160Z,6.30
2017-12-12T14:20:35.632Z,7.17
2017-12-12T14:23:03.293Z,8.50
2017-12-12T14:25:32.271Z,6.83
2017-12-12T14:27:59.725Z,7.10
2017-12-12T14:30:27.193Z,8.80
2017-12-12T14:32:54.662Z,9.97
2017-12-12T14:35:22.161Z,7.30
2017-12-12T14:37:50.508Z,7.10
2017-12-12T14:40:18.748Z,9.43
2017-12-12T14:42:46.225Z,6.70
2017-12-12T14:45:13.680Z,7.17
2017-12-12T14:47:41.155Z,6.17
2017-12-12T14:50:09.376Z,9.50
2017-12-12T14:52:36.844Z,8.77
2017-12-12T14:55:04.314Z,9.37
2017-12-12T14:57:31.780Z,5.50
2017-12-12T14:59:59.241Z,7.20
2017-12-12T15:02:26.737Z,5.33
2017-12-12T15:04:54.292Z,9.43
2017-12-12T15:07:22.364Z,6.70
2017-12-12T15:09:49.853Z,7.33
2017-12-12T15:12:17.332Z,7.43
2017-12-12T15:14:44.799Z,6.50
2017-12-12T15:17:12.381Z,6.80
2017-12-12T15:19:40.795Z,5.13
2017-12-12T15:22:08.265Z,6.10
2017-12-12T15:24:35.749Z,6.40
2017-12-12T15:27:04.894Z,5.50
2017-12-12T15:29:32.396Z,6.13
2017-12-12T15:31:59.870Z,7.07
2017-12-12T15:34:27.385Z,5.30
2017-12-12T15:36:54.894Z,9.47
2017-12-12T15:39:23.125Z,7.23
2017-12-12T15:41:50.606Z,6.83
2017-12-12T15:44:18.081Z,6.97
2017-12-12T15:46:46.318Z,5.97
2017-12-12T15:49:13.789Z,6.60
2017-12-12T15:51:42.160Z,5.67
2017-12-12T15:54:09.643Z,7.10
2017-12-12T15:56:37.891Z,7.77
2017-12-12T15:59:05.365Z,7.87
2017-12-12T16:01:32.858Z,7.33
2017-12-12T16:04:00.341Z,10.90
2017-12-12T16:06:27.846Z,6.20
2017-12-12T16:08:55.310Z,6.50
2017-12-12T16:11:23.533Z,8.60
2017-12-12T16:13:51.026Z,6.53
2017-12-12T16:16:18.572Z,10.23
2017-12-12T16:18:46.044Z,11.93
2017-12-12T16:21:14.289Z,8.10
2017-12-12T16:23:41.749Z,9.47
2017-12-12T16:26:09.223Z,13.47
2017-12-12T16:28:36.697Z,17.67
2017-12-12T16:31:04.943Z,11.57
2017-12-12T16:33:32.504Z,10.17
2017-12-12T16:36:00.051Z,12.63
2017-12-12T16:38:27.592Z,16.30
2017-12-12T16:40:55.205Z,13.20
2017-12-12T16:43:22.850Z,13.87
2017-12-12T16:45:50.363Z,14.03
2017-12-12T16:48:17.869Z,18.70
2017-12-12T16:50:45.326Z,12.73
2017-12-12T16:53:12.813Z,15.77
2017-12-12T16:55:41.046Z,19.90
2017-12-12T16:58:08.520Z,20.13
2017-12-12T17:00:36.022Z,14.83
2017-12-12T17:03:03.505Z,20.67
2017-12-12T17:05:30.989Z,21.97
2017-12-12T17:07:58.475Z,20.70
2017-12-12T17:10:26.704Z,27.87
2017-12-12T17:12:54.189Z,25.90
2017-12-12T17:15:22.554Z,25.00
2017-12-12T17:17:50.116Z,24.57
2017-12-12T17:20:17.573Z,27.20
2017-12-12T17:22:45.781Z,28.03
2017-12-12T17:25:13.332Z,29.63
2017-12-12T17:27:41.577Z,28.20
2017-12-12T17:30:09.053Z,33.10
2017-12-12T17:32:37.302Z,32.73
2017-12-12T17:35:04.766Z,29.40
2017-12-12T17:37:32.260Z,27.37
2017-12-12T17:40:00.489Z,26.97
2017-12-12T17:42:28.075Z,30.30
2017-12-12T17:44:56.471Z,31.53
2017-12-12T17:47:24.716Z,34.27
2017-12-12T17:49:52.353Z,28.83
2017-12-12T17:52:20.069Z,26.43
2017-12-12T17:54:47.537Z,32.20
2017-12-12T17:57:15.925Z,27.90
2017-12-12T17:59:43.401Z,26.67
2017-12-12T18:02:10.889Z,30.30
2017-12-12T18:04:38.341Z,30.33
2017-12-12T18:07:05.818Z,26.70
2017-12-12T18:09:34.057Z,31.37
2017-12-12T18:12:01.537Z,25.20
2017-12-12T18:14:29.010Z,27.50
2017-12-12T18:16:57.271Z,29.43
2017-12-12T18:19:24.733Z,29.07
2017-12-12T18:21:52.965Z,30.20
2017-12-12T18:24:20.449Z,26.97
2017-12-12T18:26:47.922Z,26.33
2017-12-12T18:29:16.160Z,22.37
2017-12-12T18:31:43.635Z,25.37
2017-12-12T18:34:11.111Z,29.37
2017-12-12T18:36:39.375Z,30.53
2017-12-12T18:39:06.853Z,23.70
2017-12-12T18:41:35.112Z,23.20
2017-12-12T18:44:02.595Z,20.77
2017-12-12T18:46:30.057Z,23.20
2017-12-12T18:48:57.526Z,19.07
2017-12-12T18:51:25.839Z,17.40
2017-12-12T18:53:53.377Z,20.97
2017-12-12T18:56:20.913Z,17.10
2017-12-12T18:58:48.466Z,18.33
2017-12-12T19:01:16.048Z,18.30
2017-12-12T19:03:43.902Z,17.63
2017-12-12T19:06:11.647Z,23.20
2017-12-12T19:08:40.253Z,21.40
2017-12-12T19:11:08.169Z,17.03
2017-12-12T19:13:36.086Z,20.20
2017-12-12T19:16:04.162Z,17.73
2017-12-12T19:18:32.020Z,16.10
2017-12-12T19:20:59.889Z,19.93
2017-12-12T19:23:27.690Z,16.00
2017-12-12T19:25:56.706Z,16.23
2017-12-12T19:28:24.332Z,16.13
2017-12-12T19:30:51.921Z,22.87
2017-12-12T19:33:20.320Z,16.90
2017-12-12T19:35:47.910Z,17.17
2017-12-12T19:38:15.457Z,21.03
2017-12-12T19:40:42.939Z,18.67
2017-12-12T19:43:10.449Z,16.90
2017-12-12T19:45:37.943Z,13.60
2017-12-12T19:48:05.522Z,15.80
2017-12-12T19:50:33.011Z,16.93
2017-12-12T19:53:01.274Z,17.60
2017-12-12T19:55:28.758Z,24.43
2017-12-12T19:57:57.480Z,17.23
2017-12-12T20:00:24.952Z,20.47
2017-12-12T20:02:52.437Z,16.30
2017-12-12T20:05:19.894Z,20.87
2017-12-12T20:07:49.577Z,17.27
2017-12-12T20:10:17.054Z,21.07
2017-12-12T20:12:44.673Z,20.77
2017-12-12T20:15:12.264Z,15.37
2017-12-12T20:17:39.778Z,18.60
2017-12-12T20:20:07.395Z,19.87
2017-12-12T20:22:35.626Z,21.37
2017-12-12T20:25:03.109Z,25.03
2017-12-12T20:27:30.580Z,18.40
2017-12-12T20:29:58.052Z,18.27
2017-12-12T20:32:26.283Z,15.57
2017-12-12T20:34:53.857Z,17.70
2017-12-12T20:37:21.538Z,19.87
2017-12-12T20:39:49.057Z,19.77
2017-12-12T20:42:16.550Z,21.23
2017-12-12T20:44:44.046Z,20.97
2017-12-12T20:47:11.513Z,17.90
2017-12-12T20:49:39.106Z,22.90
2017-12-12T20:52:06.584Z,15.57
2017-12-12T20:54:34.164Z,19.40
2017-12-12T20:57:02.498Z,19.63
2017-12-12T20:59:30.109Z,18.03
2017-12-12T21:01:57.726Z,17.23
2017-12-12T21:04:25.306Z,22.53
2017-12-12T21:06:53.618Z,19.97
2017-12-12T21:09:21.272Z,22.87
2017-12-12T21:11:48.818Z,17.87
2017-12-12T21:14:17.162Z,21.93
2017-12-12T21:16:44.691Z,26.10
2017-12-12T21:19:12.196Z,25.53
2017-12-12T21:21:40.441Z,18.53
2017-12-12T21:24:07.921Z,19.43
2017-12-12T21:26:35.423Z,23.53
2017-12-12T21:29:02.889Z,20.30
2017-12-12T21:31:30.454Z,25.73
2017-12-12T21:33:58.033Z,20.70
2017-12-12T21:36:25.511Z,19.53
2017-12-12T21:38:52.986Z,26.87
2017-12-12T21:41:21.227Z,16.17
2017-12-12T21:43:48.701Z,20.63
2017-12-12T21:46:16.179Z,16.37
2017-12-12T21:48:44.421Z,17.53
2017-12-12T21:51:11.979Z,20.30
2017-12-12T21:53:39.457Z,17.40
2017-12-12T21:56:06.931Z,13.67
2017-12-12T21:58:35.223Z,11.60
2017-12-12T22:01:02.716Z,14.10
2017-12-12T22:03:30.184Z,13.13
2017-12-12T22:05:57.737Z,18.37
2017-12-12T22:08:25.205Z,15.23
2017-12-12T22:10:52.697Z,18.07
2017-12-12T22:13:20.151Z,9.07
2017-12-12T22:15:48.397Z,12.10
2017-12-12T22:18:15.875Z,12.03
2017-12-12T22:20:44.116Z,11.53
2017-12-12T22:23:11.794Z,9.67
2017-12-12T22:25:39.306Z,10.87
2017-12-12T22:28:06.830Z,12.83
2017-12-12T22:30:35.072Z,9.93
2017-12-12T22:33:02.562Z,9.33
2017-12-12T22:35:30.803Z,12.77
2017-12-12T22:37:58.277Z,10.83
2017-12-12T22:40:25.789Z,9.53
2017-12-12T22:42:53.257Z,8.30
2017-12-12T22:45:20.732Z,9.80
2017-12-12T22:47:48.217Z,11.73
2017-12-12T22:50:16.466Z,12.33
2017-12-12T22:52:43.940Z,5.90
2017-12-12T22:55:12.207Z,7.90
2017-12-12T22:57:39.695Z,9.03
2017-12-12T23:00:07.153Z,7.80
2017-12-12T23:02:34.632Z,5.70
2017-12-12T23:05:02.105Z,10.13
2017-12-12T23:07:29.580Z,7.57
2017-12-12T23:09:57.068Z,5.83
2017-12-12T23:12:25.306Z,7.90
2017-12-12T23:14:52.785Z,6.30
2017-12-12T23:17:20.269Z,5.90
2017-12-12T23:19:47.890Z,6.07
2017-12-12T23:22:15.454Z,12.77
2017-12-12T23:24:44.548Z,9.93
2017-12-12T23:27:12.082Z,6.97
2017-12-12T23:29:39.689Z,7.80
2017-12-12T23:32:07.929Z,7.33
2017-12-12T23:34:35.484Z,6.13
2017-12-12T23:37:02.962Z,7.20
2017-12-12T23:39:31.199Z,4.60
2017-12-12T23:41:58.661Z,7.97
2017-12-12T23:44:26.238Z,4.90
2017-12-12T23:46:53.918Z,10.77
2017-12-12T23:49:21.462Z,7.80
2017-12-12T23:51:48.949Z,7.20
2017-12-12T23:54:17.253Z,6.30
2017-12-12T23:56:44.834Z,6.27
2017-12-12T23:59:12.308Z,5.57
